Time;durP1;ratioP1;P1;durP2;ratioP2;P2;SDS_P1;SDS_P2;PMS_P1;PMS_P2;Temp;Humidity;BMP_temperature;BMP_pressure;BME280_temperature;BME280_humidity;BME280_pressure;Samples;Min_cycle;Max_cycle;Signal;HPM_P1;HPM_P2
2022/01/07 00:00:00;;;;;;;11.38;3.50;;;1.80;99.90;;;;;;5036711;28;20024;-64
2022/01/07 00:02:26;;;;;;;12.45;4.50;;;1.80;99.90;;;;;;5036684;28;20023;-63
2022/01/07 00:04:52;;;;;;;28.27;11.53;;;1.90;99.90;;;;;;5036655;28;20083;-64
2022/01/07 00:07:17;;;;;;;14.50;4.20;;;1.90;99.90;;;;;;5036644;28;20017;-64
2022/01/07 00:09:43;;;;;;;8.13;3.20;;;1.80;99.90;;;;;;5036881;28;20026;-64
2022/01/07 00:12:10;;;;;;;;;;;1.90;99.90;;;;;;5037539;28;20474;-65
2022/01/07 00:14:35;;;;;;;8.18;4.03;;;2.00;99.90;;;;;;5037338;28;19935;-65
2022/01/07 00:17:01;;;;;;;16.03;5.97;;;2.10;99.90;;;;;;5037351;28;20029;-64
2022/01/07 00:19:27;;;;;;;14.97;5.43;;;2.00;99.90;;;;;;5036657;28;20033;-64
2022/01/07 00:21:52;;;;;;;12.67;5.40;;;1.90;99.90;;;;;;5036685;28;20029;-64
2022/01/07 00:24:18;;;;;;;15.23;5.87;;;2.00;99.90;;;;;;5035150;28;20103;-65
2022/01/07 00:26:44;;;;;;;8.37;3.50;;;1.90;99.90;;;;;;5036794;28;20029;-65
2022/01/07 00:29:09;;;;;;;8.97;3.50;;;1.90;99.90;;;;;;5037161;28;20112;-64
2022/01/07 00:31:35;;;;;;;9.67;4.03;;;1.80;99.90;;;;;;5036470;28;20268;-63
2022/01/07 00:34:00;;;;;;;20.97;6.53;;;1.80;99.90;;;;;;5036954;28;20029;-64
2022/01/07 00:36:27;;;;;;;15.30;5.67;;;1.90;99.90;;;;;;5036477;28;20175;-63
2022/01/07 00:38:53;;;;;;;13.77;4.97;;;1.80;99.90;;;;;;5036384;28;20048;-63
2022/01/07 00:41:18;;;;;;;37.23;14.60;;;2.10;99.90;;;;;;5036183;28;20018;-63
2022/01/07 00:43:44;;;;;;;31.27;12.70;;;2.20;99.90;;;;;;5035969;28;20442;-63
2022/01/07 00:46:10;;;;;;;12.33;5.50;;;2.00;99.90;;;;;;5036039;28;20478;-65
2022/01/07 00:48:35;;;;;;;8.60;3.63;;;1.90;99.90;;;;;;5036832;28;20018;-65
2022/01/07 00:51:01;;;;;;;10.23;3.70;;;1.80;99.90;;;;;;5036603;28;20072;-64
2022/01/07 00:53:26;;;;;;;10.87;3.57;;;1.80;99.90;;;;;;5036073;28;20332;-64
2022/01/07 00:55:52;;;;;;;11.40;4.40;;;1.70;99.90;;;;;;5035451;28;20022;-64
2022/01/07 00:58:18;;;;;;;11.33;3.80;;;1.60;99.90;;;;;;5034883;28;20029;-64
2022/01/07 01:00:43;;;;;;;14.77;4.87;;;1.60;99.90;;;;;;5036275;28;20057;-64
2022/01/07 01:03:09;;;;;;;14.77;4.13;;;1.50;99.90;;;;;;5035708;28;20017;-64
2022/01/07 01:05:36;;;;;;;11.93;4.33;;;1.50;99.90;;;;;;5036098;28;20029;-63
2022/01/07 01:08:02;;;;;;;12.50;4.10;;;1.50;99.90;;;;;;5035776;28;20432;-64
2022/01/07 01:10:28;;;;;;;10.63;4.20;;;1.50;99.90;;;;;;5035384;28;20029;-65
2022/01/07 01:12:55;;;;;;;8.52;4.10;;;1.50;99.90;;;;;;5035897;28;20348;-65
2022/01/07 01:15:23;;;;;;;11.20;3.97;;;1.50;99.90;;;;;;5036012;28;20494;-64
2022/01/07 01:17:51;;;;;;;10.02;3.55;;;1.50;99.90;;;;;;5035769;28;20037;-65
2022/01/07 01:20:20;;;;;;;13.82;4.10;;;1.70;99.90;;;;;;5036212;28;20018;-64
2022/01/07 01:22:46;;;;;;;8.50;3.90;;;1.70;99.90;;;;;;5035874;28;20030;-65
2022/01/07 01:25:12;;;;;;;15.57;4.85;;;1.70;99.90;;;;;;5035434;28;20033;-64
2022/01/07 01:27:39;;;;;;;11.07;3.63;;;1.70;99.90;;;;;;5035550;28;20091;-64
2022/01/07 01:30:07;;;;;;;8.85;4.30;;;1.60;99.90;;;;;;5035086;28;20029;-64
2022/01/07 01:32:34;;;;;;;12.35;3.92;;;1.60;99.90;;;;;;5035265;28;20116;-64
2022/01/07 01:34:59;;;;;;;8.30;3.38;;;1.60;99.90;;;;;;5034947;28;20029;-64
2022/01/07 01:37:25;;;;;;;11.70;3.53;;;1.60;99.90;;;;;;5035167;28;20040;-64
2022/01/07 01:39:51;;;;;;;8.23;3.50;;;1.60;99.90;;;;;;5035077;28;20030;-64
2022/01/07 01:42:16;;;;;;;9.13;4.37;;;1.60;99.90;;;;;;5034723;28;20088;-64
2022/01/07 01:44:42;;;;;;;13.63;4.05;;;1.70;99.90;;;;;;5033579;28;20033;-65
2022/01/07 01:47:08;;;;;;;13.50;4.27;;;1.90;99.90;;;;;;5035224;28;20486;-63
2022/01/07 01:49:33;;;;;;;11.37;4.40;;;1.80;99.90;;;;;;5034632;28;20036;-63
2022/01/07 01:52:01;;;;;;;9.77;4.03;;;1.70;99.90;;;;;;5034799;28;20029;-63
2022/01/07 01:54:26;;;;;;;9.35;3.80;;;1.70;99.90;;;;;;5034361;28;20115;-63
2022/01/07 01:56:52;;;;;;;14.60;5.43;;;1.60;99.90;;;;;;5033273;28;20061;-63
2022/01/07 01:59:29;;;;;;;11.10;4.73;;;1.60;99.90;;;;;;5034568;28;20045;-63
2022/01/07 02:01:55;;;;;;;;;;;1.50;99.90;;;;;;5050310;28;20387;-63
2022/01/07 02:04:21;;;;;;;11.52;5.35;;;1.50;99.90;;;;;;5034594;28;19905;-63
2022/01/07 02:06:47;;;;;;;19.42;7.10;;;1.50;99.90;;;;;;5034363;28;20058;-63
2022/01/07 02:09:13;;;;;;;12.00;4.90;;;1.50;99.90;;;;;;5034060;28;20033;-64
2022/01/07 02:11:39;;;;;;;14.90;7.07;;;1.50;99.90;;;;;;5034167;28;20493;-64
2022/01/07 02:14:05;;;;;;;10.77;5.07;;;1.40;99.90;;;;;;5049460;28;20119;-64
2022/01/07 02:16:31;;;;;;;15.37;4.30;;;1.40;99.90;;;;;;5034247;28;20486;-63
2022/01/07 02:18:57;;;;;;;10.52;4.35;;;1.40;99.90;;;;;;5034336;28;20076;-64
2022/01/07 02:21:24;;;;;;;16.52;4.85;;;1.40;99.90;;;;;;5033946;28;20479;-64
2022/01/07 02:23:50;;;;;;;9.90;4.78;;;1.50;99.90;;;;;;5034281;28;20033;-64
2022/01/07 02:26:17;;;;;;;17.73;5.93;;;1.50;99.90;;;;;;5033854;28;20096;-64
2022/01/07 02:28:44;;;;;;;11.55;4.50;;;1.50;99.90;;;;;;5033886;28;20443;-64
2022/01/07 02:31:10;;;;;;;13.98;5.25;;;1.50;99.90;;;;;;5034117;28;20033;-64
2022/01/07 02:33:36;;;;;;;12.03;4.90;;;1.50;99.90;;;;;;5033680;28;20072;-63
2022/01/07 02:36:09;;;;;;;11.73;4.20;;;1.50;99.90;;;;;;5032601;28;20026;-62
2022/01/07 02:38:36;;;;;;;13.07;4.55;;;1.50;99.90;;;;;;5033931;28;20017;-64
2022/01/07 02:41:02;;;;;;;12.93;4.00;;;1.60;99.90;;;;;;5033715;28;20053;-63
2022/01/07 02:43:28;;;;;;;8.07;3.92;;;1.70;99.90;;;;;;5034279;28;20096;-64
2022/01/07 02:45:54;;;;;;;11.05;4.75;;;1.70;99.90;;;;;;5033593;28;20060;-63
2022/01/07 02:48:20;;;;;;;9.27;3.97;;;1.80;99.90;;;;;;5032351;28;20072;-63
2022/01/07 02:50:46;;;;;;;10.18;4.30;;;1.80;99.90;;;;;;5033437;28;20021;-62
2022/01/07 02:53:12;;;;;;;14.27;4.35;;;1.90;99.90;;;;;;5033407;28;20045;-62
2022/01/07 02:55:39;;;;;;;10.35;4.15;;;1.90;99.90;;;;;;5033436;28;20032;-63
2022/01/07 02:58:06;;;;;;;13.95;4.35;;;2.00;99.90;;;;;;5048711;28;20029;-62
2022/01/07 03:00:32;;;;;;;8.48;4.05;;;2.10;99.90;;;;;;5033432;28;20021;-62
2022/01/07 03:02:59;;;;;;;13.20;3.92;;;2.10;99.90;;;;;;5033573;28;20033;-63
2022/01/07 03:05:25;;;;;;;10.38;3.90;;;2.00;99.90;;;;;;5033899;28;20032;-63
2022/01/07 03:07:51;;;;;;;9.02;3.22;;;2.00;99.90;;;;;;5035929;28;20061;-62
2022/01/07 03:10:21;;;;;;;12.18;3.42;;;2.10;99.90;;;;;;5033635;28;20395;-63
2022/01/07 03:12:47;;;;;;;6.80;3.92;;;2.10;99.90;;;;;;5032958;28;20375;-63
2022/01/07 03:15:13;;;;;;;7.83;3.93;;;2.00;99.90;;;;;;5032973;28;20039;-64
2022/01/07 03:17:40;;;;;;;6.90;3.45;;;1.90;99.90;;;;;;5033245;28;20112;-63
2022/01/07 03:20:12;;;;;;;9.85;3.83;;;2.00;99.90;;;;;;5032737;28;20029;-62
2022/01/07 03:22:38;;;;;;;9.02;3.97;;;1.90;99.90;;;;;;5032693;28;20041;-62
2022/01/07 03:25:05;;;;;;;8.50;3.30;;;1.90;99.90;;;;;;5048183;28;20021;-63
2022/01/07 03:27:31;;;;;;;10.25;4.03;;;1.90;99.90;;;;;;5033009;28;20429;-63
2022/01/07 03:29:56;;;;;;;14.30;4.00;;;1.90;99.90;;;;;;5032888;28;20104;-62
2022/01/07 03:32:24;;;;;;;6.93;3.23;;;1.80;99.90;;;;;;5031596;28;20061;-64
2022/01/07 03:34:50;;;;;;;11.07;4.10;;;1.90;99.90;;;;;;5032023;28;20112;-64
2022/01/07 03:37:16;;;;;;;11.57;4.18;;;1.90;99.90;;;;;;5033522;28;20092;-63
2022/01/07 03:39:41;;;;;;;10.27;4.10;;;1.90;99.90;;;;;;5032835;28;20029;-64
2022/01/07 03:42:07;;;;;;;9.57;4.00;;;2.00;99.90;;;;;;5032859;28;20033;-63
2022/01/07 03:44:33;;;;;;;8.82;3.95;;;2.10;99.90;;;;;;5032758;28;20390;-63
2022/01/07 03:46:58;;;;;;;8.40;3.63;;;2.00;99.90;;;;;;5033065;28;20064;-63
2022/01/07 03:49:24;;;;;;;10.87;3.73;;;2.10;99.90;;;;;;5033035;28;20061;-63
2022/01/07 03:51:50;;;;;;;10.17;4.17;;;2.00;99.90;;;;;;5032562;28;20029;-63
2022/01/07 03:54:15;;;;;;;8.13;3.83;;;1.90;99.90;;;;;;5032602;28;20436;-63
2022/01/07 03:56:41;;;;;;;10.73;3.70;;;1.80;99.90;;;;;;5033013;28;20025;-63
2022/01/07 03:59:06;;;;;;;6.40;3.10;;;2.00;99.90;;;;;;5032624;28;20100;-62
2022/01/07 04:01:32;;;;;;;13.07;3.83;;;1.90;99.90;;;;;;5032497;28;20478;-61
2022/01/07 04:03:58;;;;;;;13.20;4.63;;;2.20;99.90;;;;;;5032727;28;20080;-63
2022/01/07 04:06:23;;;;;;;7.00;3.60;;;1.90;99.90;;;;;;5032699;28;20073;-63
2022/01/07 04:08:49;;;;;;;6.53;3.57;;;1.80;99.90;;;;;;5032454;28;20475;-63
2022/01/07 04:11:15;;;;;;;7.80;3.58;;;1.90;99.90;;;;;;5032657;28;20029;-63
2022/01/07 04:13:42;;;;;;;7.35;2.95;;;1.80;99.90;;;;;;5032291;28;20044;-63
2022/01/07 04:16:07;;;;;;;8.45;3.75;;;1.70;99.90;;;;;;5048108;28;20470;-63
2022/01/07 04:18:33;;;;;;;12.77;4.37;;;1.80;99.90;;;;;;5032376;28;20056;-63
2022/01/07 04:20:59;;;;;;;6.83;3.47;;;1.80;99.90;;;;;;5032718;28;20288;-63
2022/01/07 04:23:24;;;;;;;7.43;3.83;;;1.90;99.90;;;;;;5032756;28;20840;-65
2022/01/07 04:25:50;;;;;;;8.83;3.53;;;1.80;99.90;;;;;;5032267;28;20037;-65
2022/01/07 04:28:16;;;;;;;7.77;4.47;;;1.70;99.90;;;;;;5030926;28;20037;-65
2022/01/07 04:30:43;;;;;;;8.17;3.70;;;1.60;99.90;;;;;;5032189;28;20095;-65
2022/01/07 04:33:13;;;;;;;10.30;3.50;;;1.50;99.90;;;;;;5034691;28;20466;-65
2022/01/07 04:35:39;;;;;;;10.80;3.60;;;1.50;99.90;;;;;;5035752;28;20080;-65
2022/01/07 04:38:06;;;;;;;12.97;3.97;;;1.40;99.90;;;;;;5035802;28;20422;-66
2022/01/07 04:40:32;;;;;;;10.38;4.15;;;1.40;99.90;;;;;;5050974;28;20646;-66
2022/01/07 04:42:59;;;;;;;11.98;4.03;;;1.40;99.90;;;;;;5035547;28;20064;-66
2022/01/07 04:45:25;;;;;;;11.18;4.88;;;1.40;99.90;;;;;;5035554;28;20437;-65
2022/01/07 04:47:51;;;;;;;14.13;4.72;;;1.40;99.90;;;;;;5035576;28;20100;-65
2022/01/07 04:50:19;;;;;;;9.67;5.03;;;1.40;99.90;;;;;;5034386;28;20068;-65
2022/01/07 04:52:45;;;;;;;10.43;4.88;;;1.60;99.90;;;;;;5036003;28;20264;-65
2022/01/07 04:55:20;;;;;;;12.98;4.80;;;1.60;99.90;;;;;;5035655;28;20386;-65
2022/01/07 04:57:46;;;;;;;14.70;4.88;;;1.60;99.90;;;;;;5035891;28;20037;-65
2022/01/07 05:00:13;;;;;;;;;;;1.60;99.90;;;;;;5036149;28;20471;-65
2022/01/07 05:02:39;;;;;;;13.77;5.50;;;1.60;99.90;;;;;;5035502;28;19927;-65
2022/01/07 05:05:05;;;;;;;10.00;5.40;;;1.70;99.90;;;;;;5035483;28;20431;-66
2022/01/07 05:07:31;;;;;;;11.90;4.95;;;1.70;99.90;;;;;;5035734;28;20037;-66
2022/01/07 05:09:56;;;;;;;13.10;5.43;;;1.70;99.90;;;;;;5035782;28;20498;-66
2022/01/07 05:12:22;;;;;;;13.00;5.97;;;1.70;99.90;;;;;;5035429;28;20059;-66
2022/01/07 05:14:48;;;;;;;13.27;5.57;;;1.70;99.90;;;;;;5035281;28;20030;-66
2022/01/07 05:17:13;;;;;;;11.53;5.27;;;1.70;99.90;;;;;;5035694;28;20017;-66
2022/01/07 05:19:39;;;;;;;13.77;6.40;;;1.80;99.90;;;;;;5035186;28;20049;-66
2022/01/07 05:22:04;;;;;;;10.33;6.00;;;1.80;99.90;;;;;;5034796;28;20025;-65
2022/01/07 05:24:30;;;;;;;12.60;5.37;;;1.80;99.90;;;;;;5035414;28;20056;-65
2022/01/07 05:26:56;;;;;;;13.53;5.37;;;1.80;99.90;;;;;;5035123;28;20026;-65
2022/01/07 05:29:21;;;;;;;10.87;6.30;;;1.80;99.90;;;;;;5035120;28;20434;-65
2022/01/07 05:31:47;;;;;;;14.13;6.90;;;1.80;99.90;;;;;;5035103;28;20029;-65
2022/01/07 05:34:12;;;;;;;14.60;7.90;;;1.80;99.90;;;;;;5034971;28;20379;-66
2022/01/07 05:36:38;;;;;;;14.13;6.43;;;1.80;99.90;;;;;;5034874;28;20030;-66
2022/01/07 05:39:05;;;;;;;13.10;7.68;;;1.80;99.90;;;;;;5050306;28;20029;-66
2022/01/07 05:41:32;;;;;;;14.65;7.70;;;1.80;99.90;;;;;;5035362;28;20032;-66
2022/01/07 05:43:57;;;;;;;14.27;6.72;;;1.90;99.90;;;;;;5049834;28;20061;-66
2022/01/07 05:46:23;;;;;;;17.67;6.73;;;1.90;99.90;;;;;;5035113;28;20022;-66
2022/01/07 05:48:49;;;;;;;14.20;6.23;;;1.90;99.90;;;;;;5035236;28;20022;-66
2022/01/07 05:51:14;;;;;;;14.83;7.27;;;2.00;99.90;;;;;;5034919;28;20021;-65
2022/01/07 05:53:40;;;;;;;15.73;6.45;;;2.00;99.90;;;;;;5034839;28;20482;-65
2022/01/07 05:56:07;;;;;;;16.33;6.88;;;2.00;99.90;;;;;;5034525;28;20088;-66
2022/01/07 05:58:33;;;;;;;17.17;6.75;;;2.00;99.90;;;;;;5035092;28;20100;-67
2022/01/07 06:00:59;;;;;;;13.57;6.22;;;2.10;99.90;;;;;;5050023;28;20044;-66
2022/01/07 06:03:25;;;;;;;17.27;6.77;;;2.10;99.90;;;;;;5034548;28;20100;-65
2022/01/07 06:05:50;;;;;;;14.37;6.63;;;2.10;99.90;;;;;;5034723;28;20029;-65
2022/01/07 06:08:16;;;;;;;10.80;6.00;;;2.20;99.90;;;;;;5050267;28;20279;-66
2022/01/07 06:10:41;;;;;;;14.63;7.23;;;2.10;99.90;;;;;;5034872;28;20026;-65
2022/01/07 06:13:07;;;;;;;17.83;6.40;;;2.20;99.90;;;;;;5035021;28;20029;-65
2022/01/07 06:15:33;;;;;;;15.10;5.47;;;2.20;99.90;;;;;;5033152;28;20114;-65
2022/01/07 06:18:01;;;;;;;15.93;5.83;;;2.20;99.90;;;;;;5049528;28;20030;-65
2022/01/07 06:20:27;;;;;;;14.65;6.60;;;2.30;99.90;;;;;;5034200;28;20364;-66
2022/01/07 06:22:53;;;;;;;11.57;5.90;;;2.30;99.90;;;;;;5034386;28;20116;-65
2022/01/07 06:25:18;;;;;;;12.00;6.00;;;2.30;99.90;;;;;;5034117;28;20104;-66
2022/01/07 06:27:44;;;;;;;9.97;5.13;;;2.40;99.90;;;;;;5033920;28;20021;-65
2022/01/07 06:30:10;;;;;;;13.50;5.73;;;2.30;99.90;;;;;;5033902;28;20375;-66
2022/01/07 06:32:36;;;;;;;13.85;5.85;;;2.30;99.90;;;;;;5033809;28;20493;-66
2022/01/07 06:35:02;;;;;;;11.90;4.80;;;2.30;99.90;;;;;;5033708;28;20035;-66
2022/01/07 06:37:27;;;;;;;10.60;5.10;;;2.30;99.90;;;;;;5034265;28;20032;-66
2022/01/07 06:39:54;;;;;;;10.30;5.50;;;2.40;99.90;;;;;;5034118;28;20398;-66
2022/01/07 06:42:20;;;;;;;12.45;5.28;;;2.40;99.90;;;;;;5034296;28;20018;-66
2022/01/07 06:44:46;;;;;;;8.67;5.27;;;2.40;99.90;;;;;;5034384;28;20037;-67
2022/01/07 06:47:11;;;;;;;9.37;4.53;;;2.40;99.90;;;;;;5034424;28;20037;-67
2022/01/07 06:49:38;;;;;;;12.07;5.60;;;2.50;99.90;;;;;;5034333;28;20025;-67
2022/01/07 06:52:04;;;;;;;13.87;6.50;;;2.50;99.90;;;;;;5033554;28;20375;-67
2022/01/07 06:54:31;;;;;;;10.20;4.60;;;2.50;99.90;;;;;;5033324;28;20074;-67
2022/01/07 06:56:57;;;;;;;12.95;4.60;;;2.50;99.90;;;;;;5033630;28;20033;-67
2022/01/07 06:59:23;;;;;;;10.07;4.47;;;2.50;99.90;;;;;;5048900;28;20053;-67
2022/01/07 07:01:49;;;;;;;11.55;4.43;;;2.50;99.90;;;;;;5034280;28;20022;-68
2022/01/07 07:04:16;;;;;;;10.40;4.30;;;2.40;99.90;;;;;;5033666;28;20036;-67
2022/01/07 07:06:42;;;;;;;10.05;4.43;;;2.40;99.90;;;;;;5033175;28;20033;-67
2022/01/07 07:09:08;;;;;;;8.98;3.95;;;2.40;99.90;;;;;;5048754;28;20076;-67
2022/01/07 07:11:34;;;;;;;6.35;3.60;;;2.40;99.90;;;;;;5033469;28;20079;-67
2022/01/07 07:13:59;;;;;;;8.23;4.13;;;2.40;99.90;;;;;;5033731;28;20033;-67
2022/01/07 07:16:25;;;;;;;15.17;6.57;;;2.50;99.90;;;;;;5033808;28;20268;-66
2022/01/07 07:18:51;;;;;;;11.63;3.80;;;2.50;99.90;;;;;;5033819;28;20045;-67
2022/01/07 07:21:17;;;;;;;8.35;3.65;;;2.50;99.90;;;;;;5033674;28;20021;-66
2022/01/07 07:23:42;;;;;;;8.98;3.45;;;2.60;99.90;;;;;;5033971;28;20076;-67
2022/01/07 07:26:08;;;;;;;10.33;4.20;;;2.60;99.90;;;;;;5033170;28;20049;-67
2022/01/07 07:28:36;;;;;;;5.33;3.37;;;2.60;99.90;;;;;;5031654;28;20025;-66
2022/01/07 07:31:05;;;;;;;13.02;5.05;;;2.60;99.90;;;;;;5048333;28;20268;-67
2022/01/07 07:33:54;;;;;;;11.50;4.47;;;2.60;99.90;;;;;;5032785;28;20036;-66
2022/01/07 07:36:32;;;;;;;8.13;3.28;;;2.70;99.90;;;;;;5032969;28;20170;-67
2022/01/07 07:39:07;;;;;;;9.35;3.58;;;2.70;99.90;;;;;;5033142;28;20025;-67
2022/01/07 07:41:34;;;;;;;7.18;2.80;;;2.80;99.90;;;;;;5032918;28;20021;-66
2022/01/07 07:44:00;;;;;;;6.03;3.10;;;2.80;99.90;;;;;;5031367;28;20025;-67
2022/01/07 07:46:30;;;;;;;7.85;3.20;;;2.80;99.90;;;;;;5032776;28;20094;-68
2022/01/07 07:48:56;;;;;;;10.80;3.55;;;2.80;99.90;;;;;;5032871;28;20048;-67
2022/01/07 07:51:22;;;;;;;6.05;3.22;;;2.90;99.90;;;;;;5033349;28;20037;-66
2022/01/07 07:53:47;;;;;;;6.17;3.03;;;2.90;99.90;;;;;;5048009;28;20033;-67
2022/01/07 07:56:15;;;;;;;6.27;3.43;;;2.90;99.90;;;;;;5047774;28;20443;-66
2022/01/07 07:58:42;;;;;;;7.88;3.25;;;3.00;99.90;;;;;;5032305;28;20065;-67
2022/01/07 08:01:07;;;;;;;;;;;3.00;99.90;;;;;;5033199;28;20431;-66
2022/01/07 08:03:33;;;;;;;9.32;3.30;;;3.00;99.90;;;;;;5032785;28;19992;-68
2022/01/07 08:05:59;;;;;;;5.97;2.90;;;3.00;99.90;;;;;;5033507;28;20112;-67
2022/01/07 08:08:25;;;;;;;6.25;2.53;;;3.00;99.90;;;;;;5036574;28;20025;-69
2022/01/07 08:10:55;;;;;;;6.80;2.55;;;3.10;99.90;;;;;;5034827;28;20037;-68
2022/01/07 08:13:31;;;;;;;6.07;3.10;;;3.10;99.90;;;;;;5036008;28;20030;-67
2022/01/07 08:16:03;;;;;;;5.25;2.78;;;3.10;99.90;;;;;;5036124;28;20052;-67
2022/01/07 08:18:37;;;;;;;14.25;7.65;;;3.20;99.90;;;;;;5036141;28;20017;-67
2022/01/07 08:21:08;;;;;;;7.50;3.15;;;3.30;99.90;;;;;;5036119;28;20091;-69
2022/01/07 08:23:35;;;;;;;6.00;3.22;;;3.30;99.90;;;;;;5035361;28;20044;-66
2022/01/07 08:26:07;;;;;;;6.28;2.92;;;3.30;99.90;;;;;;5036734;28;20029;-67
2022/01/07 08:28:38;;;;;;;7.75;3.08;;;3.30;99.90;;;;;;5036247;28;20025;-67
2022/01/07 08:36:21;;;;;;;5.07;2.60;;;3.40;99.90;;;;;;5036466;28;20493;-69
2022/01/07 08:38:49;;;;;;;5.32;3.10;;;3.40;99.90;;;;;;5036594;28;20506;-68
2022/01/07 08:41:15;;;;;;;9.68;2.70;;;3.50;99.90;;;;;;5036399;28;20032;-68
2022/01/07 08:43:41;;;;;;;;;;;3.40;99.90;;;;;;5036115;28;20487;-68
2022/01/07 08:46:07;;;;;;;6.00;2.80;;;3.40;99.90;;;;;;5035827;28;19963;-67
2022/01/07 08:48:34;;;;;;;;;;;3.40;99.90;;;;;;5035859;28;20037;-67
2022/01/07 08:50:59;;;;;;;6.22;3.10;;;3.50;99.90;;;;;;5035609;28;19905;-67
2022/01/07 08:53:25;;;;;;;7.10;3.33;;;3.50;99.90;;;;;;5050575;28;20340;-67
2022/01/07 08:55:51;;;;;;;5.47;2.80;;;3.50;99.90;;;;;;5035462;28;20112;-67
2022/01/07 08:58:17;;;;;;;6.13;2.80;;;3.50;99.90;;;;;;5050795;28;20482;-67
2022/01/07 09:00:42;;;;;;;4.82;2.65;;;3.50;99.90;;;;;;5035388;28;20022;-67
2022/01/07 09:03:08;;;;;;;4.95;2.42;;;3.60;99.90;;;;;;5035408;28;20065;-67
2022/01/07 09:05:34;;;;;;;4.93;2.85;;;3.70;99.90;;;;;;5035284;28;20052;-67
2022/01/07 09:08:00;;;;;;;6.43;3.22;;;3.80;99.90;;;;;;5035322;28;20025;-67
2022/01/07 09:10:26;;;;;;;5.60;2.50;;;3.70;99.90;;;;;;5035069;28;20029;-67
2022/01/07 09:12:52;;;;;;;6.85;2.80;;;3.80;99.90;;;;;;5034911;28;20025;-67
2022/01/07 09:15:18;;;;;;;5.80;2.70;;;3.70;99.90;;;;;;5034924;28;20039;-66
2022/01/07 09:17:44;;;;;;;7.40;3.00;;;3.80;99.90;;;;;;5034139;28;20423;-66
2022/01/07 09:20:13;;;;;;;7.40;2.87;;;3.70;99.90;;;;;;5050152;28;20026;-66
2022/01/07 09:22:39;;;;;;;6.45;3.08;;;3.70;99.90;;;;;;5034611;28;20283;-67
2022/01/07 09:25:06;;;;;;;4.43;2.60;;;3.70;99.90;;;;;;5034855;28;20362;-67
2022/01/07 09:27:33;;;;;;;5.07;2.38;;;3.80;99.90;;;;;;5035046;28;20120;-67
2022/01/07 09:29:59;;;;;;;;;;;3.80;99.90;;;;;;5050354;28;20097;-67
2022/01/07 09:32:24;;;;;;;6.43;2.50;;;3.90;99.90;;;;;;5034679;28;19905;-67
2022/01/07 09:34:50;;;;;;;8.10;2.80;;;3.90;99.90;;;;;;5034659;28;20025;-67
2022/01/07 09:37:16;;;;;;;5.15;2.80;;;3.80;99.90;;;;;;5034916;28;20025;-67
2022/01/07 09:39:42;;;;;;;4.60;2.87;;;3.80;99.90;;;;;;5034916;28;20025;-67
2022/01/07 09:42:09;;;;;;;5.87;3.07;;;3.90;99.90;;;;;;5034585;28;20446;-66
2022/01/07 09:44:39;;;;;;;11.35;4.03;;;3.80;99.90;;;;;;5034940;28;20025;-66
2022/01/07 09:47:06;;;;;;;4.63;2.58;;;3.80;99.90;;;;;;5034964;28;20048;-68
2022/01/07 09:49:34;;;;;;;;;;;3.70;99.90;;;;;;5034982;28;20041;-67
2022/01/07 09:52:01;;;;;;;7.80;3.47;;;3.60;99.90;;;;;;5035075;28;19905;-68
2022/01/07 09:54:27;;;;;;;4.75;3.17;;;3.50;99.90;;;;;;5034298;28;20080;-68
2022/01/07 09:56:52;;;;;;;9.77;3.17;;;3.40;99.90;;;;;;5034279;28;20033;-67
2022/01/07 09:59:19;;;;;;;5.03;3.00;;;3.30;99.90;;;;;;5034460;28;20116;-66
2022/01/07 10:02:22;;;;;;;7.68;3.83;;;3.30;99.90;;;;;;5034400;28;20028;-66
2022/01/07 10:04:48;;;;;;;6.95;3.42;;;3.20;99.90;;;;;;4974461;28;20070;-66
2022/01/07 10:07:23;;;;;;;9.38;3.45;;;3.20;99.90;;;;;;5021770;28;20145;-67
2022/01/07 10:10:05;;;;;;;7.00;3.42;;;3.10;99.90;;;;;;5049636;28;20030;-67
2022/01/07 10:12:53;;;;;;;6.57;3.28;;;3.10;99.90;;;;;;5049979;28;20368;-66
2022/01/07 10:15:40;;;;;;;5.88;3.65;;;3.10;99.90;;;;;;5033596;28;20124;-66
2022/01/07 10:18:11;;;;;;;7.72;4.35;;;3.10;99.90;;;;;;5034085;28;20029;-67
2022/01/07 10:20:44;;;;;;;7.22;4.03;;;3.10;99.90;;;;;;5033787;28;20116;-67
2022/01/07 10:23:24;;;;;;;8.00;4.15;;;3.00;99.90;;;;;;5034541;28;20038;-65
2022/01/07 10:25:54;;;;;;;16.88;6.72;;;3.00;99.90;;;;;;5034175;28;20427;-64
2022/01/07 10:28:20;;;;;;;12.38;5.28;;;3.00;99.90;;;;;;5034151;28;20479;-65
2022/01/07 10:30:52;;;;;;;9.68;4.50;;;3.00;99.90;;;;;;5033689;28;20021;-64
2022/01/07 10:33:19;;;;;;;9.18;4.25;;;3.10;99.90;;;;;;5034664;28;20103;-65
2022/01/07 10:35:50;;;;;;;6.60;3.65;;;3.10;99.90;;;;;;5033746;28;20052;-63
2022/01/07 10:38:24;;;;;;;13.18;6.15;;;3.10;99.90;;;;;;5048837;28;20509;-64
2022/01/07 10:40:52;;;;;;;26.15;10.63;;;3.10;99.90;;;;;;5033786;28;20040;-66
2022/01/07 10:43:24;;;;;;;6.70;3.50;;;3.30;99.90;;;;;;5033419;28;20151;-66
2022/01/07 10:45:53;;;;;;;8.85;4.40;;;3.30;99.90;;;;;;5034021;28;20028;-68
2022/01/07 10:48:22;;;;;;;7.10;3.53;;;3.30;99.90;;;;;;5033841;28;20031;-70
2022/01/07 10:50:50;;;;;;;12.02;3.97;;;3.40;99.90;;;;;;5048674;28;20026;-67
2022/01/07 10:53:19;;;;;;;10.60;4.13;;;3.30;99.90;;;;;;5033536;28;20034;-70
2022/01/07 10:56:16;;;;;;;8.82;4.40;;;3.40;99.90;;;;;;5049702;28;20021;-74
2022/01/07 10:58:50;;;;;;;8.07;3.92;;;3.40;99.90;;;;;;5051020;28;20025;-73
2022/01/07 11:01:21;;;;;;;9.30;4.03;;;3.40;99.90;;;;;;5050526;28;20116;-70
2022/01/07 11:03:55;;;;;;;13.15;6.07;;;3.50;99.90;;;;;;5036492;28;20018;-70
2022/01/07 11:06:22;;;;;;;9.38;5.35;;;3.50;99.90;;;;;;5050801;28;20057;-70
2022/01/07 11:08:50;;;;;;;10.65;3.85;;;3.60;99.90;;;;;;5049322;28;20387;-70
2022/01/07 11:11:18;;;;;;;7.63;3.70;;;3.70;99.90;;;;;;5033232;28;20032;-72
2022/01/07 11:13:43;;;;;;;11.25;5.25;;;3.70;99.90;;;;;;5034171;28;20029;-72
2022/01/07 11:16:09;;;;;;;9.40;4.20;;;3.80;99.90;;;;;;5033134;28;20025;-72
2022/01/07 11:18:41;;;;;;;6.23;3.80;;;3.90;99.90;;;;;;5032589;28;20056;-71
2022/01/07 11:21:08;;;;;;;13.38;5.50;;;4.20;99.90;;;;;;5033307;28;20439;-70
2022/01/07 11:23:38;;;;;;;7.28;4.10;;;4.30;99.90;;;;;;5033517;28;20548;-72
2022/01/07 11:26:10;;;;;;;10.13;4.55;;;4.30;99.90;;;;;;5033346;28;20128;-73
2022/01/07 11:28:38;;;;;;;9.40;3.60;;;4.20;99.90;;;;;;5033430;28;20030;-72
2022/01/07 11:31:12;;;;;;;9.77;4.63;;;4.20;99.90;;;;;;5033104;28;20084;-71
2022/01/07 11:33:38;;;;;;;8.77;3.55;;;4.10;99.90;;;;;;5048098;28;20505;-67
2022/01/07 11:36:09;;;;;;;11.10;3.75;;;4.10;99.90;;;;;;5032611;28;20026;-67
2022/01/07 11:38:46;;;;;;;5.88;3.13;;;4.00;99.90;;;;;;5032954;28;20140;-67
2022/01/07 11:41:50;;;;;;;7.80;3.67;;;4.00;99.90;;;;;;5035713;28;20088;-67
2022/01/07 11:44:28;;;;;;;11.57;3.65;;;4.00;99.90;;;;;;5039866;28;20045;-67
2022/01/07 11:47:23;;;;;;;9.15;3.65;;;4.00;99.90;;;;;;5039508;28;20505;-68
2022/01/07 11:50:05;;;;;;;7.28;3.22;;;3.90;99.90;;;;;;5038237;28;20079;-67
2022/01/07 11:52:33;;;;;;;7.30;3.33;;;3.90;99.90;;;;;;5054750;28;20517;-67
2022/01/07 11:55:38;;;;;;;7.28;3.45;;;4.00;99.90;;;;;;5039080;28;20029;-68
2022/01/07 11:58:12;;;;;;;6.95;3.80;;;4.00;99.90;;;;;;5039180;28;20018;-67
2022/01/07 12:01:03;;;;;;;7.55;2.88;;;4.10;99.90;;;;;;5054083;28;20021;-67
2022/01/07 12:03:42;;;;;;;8.52;3.38;;;4.20;99.90;;;;;;5039111;28;20025;-69
2022/01/07 12:06:17;;;;;;;5.28;3.13;;;4.20;99.90;;;;;;5054271;28;20483;-69
2022/01/07 12:08:58;;;;;;;8.88;3.75;;;4.30;99.90;;;;;;5040104;28;20490;-70
2022/01/07 12:11:40;;;;;;;9.13;4.72;;;4.20;99.90;;;;;;5054269;28;20057;-71
2022/01/07 12:14:18;;;;;;;8.55;3.67;;;4.10;99.90;;;;;;5054117;28;20033;-69
2022/01/07 12:16:49;;;;;;;7.35;3.30;;;4.10;99.90;;;;;;5039196;28;20162;-71
2022/01/07 12:19:18;;;;;;;4.38;2.67;;;4.00;99.90;;;;;;5039302;28;20024;-68
2022/01/07 12:21:45;;;;;;;7.53;3.45;;;4.00;99.90;;;;;;5054176;28;20033;-70
2022/01/07 12:24:14;;;;;;;10.77;4.25;;;4.00;99.90;;;;;;5053885;28;20025;-70
2022/01/07 12:26:40;;;;;;;7.97;3.75;;;4.00;99.90;;;;;;5038324;28;20037;-68
2022/01/07 12:29:14;;;;;;;12.05;3.90;;;3.90;99.90;;;;;;5039118;28;20029;-70
2022/01/07 12:31:52;;;;;;;9.30;4.00;;;4.00;99.90;;;;;;5038829;28;20034;-69
2022/01/07 12:34:25;;;;;;;9.57;3.83;;;4.00;99.90;;;;;;5038762;28;20044;-67
2022/01/07 12:36:59;;;;;;;10.15;3.30;;;4.00;99.90;;;;;;5054466;28;20438;-67
2022/01/07 12:39:27;;;;;;;8.80;3.47;;;4.00;99.90;;;;;;5038849;28;20025;-66
2022/01/07 12:41:54;;;;;;;10.73;3.40;;;4.10;99.90;;;;;;5037726;28;20398;-72
2022/01/07 12:44:20;;;;;;;6.97;3.17;;;4.10;99.90;;;;;;5054630;28;20041;-69
2022/01/07 12:46:52;;;;;;;6.95;2.88;;;4.10;99.90;;;;;;5039044;28;20030;-69
2022/01/07 12:49:17;;;;;;;6.35;2.70;;;4.10;99.90;;;;;;5039412;28;20044;-65
2022/01/07 12:51:43;;;;;;;7.38;2.97;;;4.20;99.90;;;;;;5040524;28;20417;-67
2022/01/07 12:54:11;;;;;;;10.52;3.63;;;4.20;99.90;;;;;;5036033;28;20524;-67
2022/01/07 12:56:39;;;;;;;8.05;3.75;;;4.20;99.90;;;;;;5035732;28;20093;-67
2022/01/07 12:59:21;;;;;;;5.90;2.50;;;4.20;99.90;;;;;;5051009;28;20026;-70
2022/01/07 13:01:49;;;;;;;6.32;3.25;;;4.10;99.90;;;;;;5035958;28;20044;-71